Time;durP1;ratioP1;P1;durP2;ratioP2;P2;SDS_P1;SDS_P2;PMS_P1;PMS_P2;Temp;Humidity;BMP_temperature;BMP_pressure;BME280_temperature;BME280_humidity;BME280_pressure;Samples;Min_cycle;Max_cycle;Signal;HPM_P1;HPM_P2
2021/03/31 00:01:46;;;;;;;33.10;21.43;;;;;;;9.66;72.57;101221.02;147474;1147;104405;-82
2021/03/31 00:04:49;;;;;;;33.08;23.00;;;;;;;9.66;72.28;101218.35;147425;1148;104580;-81
2021/03/31 00:07:53;;;;;;;36.38;25.48;;;;;;;9.66;72.74;101220.15;147726;1147;104517;-83
2021/03/31 00:10:59;;;;;;;36.57;25.47;;;;;;;9.66;72.22;101220.15;147633;1147;104943;-83
2021/03/31 00:14:03;;;;;;;34.18;24.92;;;;;;;9.62;71.84;101211.55;147786;1146;104555;-80
2021/03/31 00:17:06;;;;;;;40.23;25.90;;;;;;;9.59;72.28;101217.14;147675;1147;104475;-80
2021/03/31 00:20:13;;;;;;;34.65;24.02;;;;;;;9.58;72.75;101212.77;147904;1147;104522;-82
2021/03/31 00:23:20;;;;;;;35.33;22.57;;;;;;;9.52;72.37;101211.44;147615;1147;104536;-82
2021/03/31 00:26:24;;;;;;;33.63;22.27;;;;;;;9.52;72.26;101213.27;147507;1147;104607;-82
2021/03/31 00:29:27;;;;;;;37.85;25.80;;;;;;;9.50;72.03;101204.55;147587;1147;104518;-80
2021/03/31 00:32:30;;;;;;;33.83;23.45;;;;;;;9.46;72.77;101206.61;147535;1147;104532;-81
2021/03/31 00:35:33;;;;;;;35.03;25.20;;;;;;;9.47;72.74;101199.45;147831;1146;104896;-81
2021/03/31 00:38:37;;;;;;;36.60;25.27;;;;;;;9.47;72.55;101196.79;147648;1147;104526;-84
2021/03/31 00:41:40;;;;;;;32.23;22.75;;;;;;;9.42;72.29;101198.01;147810;1147;104548;-80
2021/03/31 00:44:44;;;;;;;33.38;23.52;;;;;;;9.33;72.29;101190.75;148772;1147;104417;-82
2021/03/31 00:47:47;;;;;;;32.00;21.33;;;;;;;9.28;72.64;101192.11;149260;1146;104486;-79
2021/03/31 00:50:54;;;;;;;28.65;19.37;;;;;;;9.25;72.60;101190.52;149069;1147;105174;-80
2021/03/31 00:53:57;;;;;;;27.85;20.10;;;;;;;9.27;72.55;101185.08;148458;1146;104611;-84
2021/03/31 00:57:01;;;;;;;29.98;20.15;;;;;;;9.23;72.26;101192.45;147729;1147;104544;-87
2021/03/31 01:00:05;;;;;;;31.55;21.05;;;;;;;9.21;72.12;101194.39;147821;1147;105116;-84
2021/03/31 01:03:09;;;;;;;28.42;20.17;;;;;;;9.18;72.26;101192.83;147670;1147;104535;-83
2021/03/31 01:06:12;;;;;;;28.17;19.65;;;;;;;9.13;72.05;101194.16;147634;1147;104486;-83
2021/03/31 01:09:16;;;;;;;29.52;20.27;;;;;;;9.07;72.09;101189.32;147575;1148;104592;-82
2021/03/31 01:12:27;;;;;;;29.10;20.88;;;;;;;8.99;72.12;101181.94;147740;1147;104525;-85
2021/03/31 01:15:34;;;;;;;28.43;18.00;;;;;;;8.95;72.11;101188.44;147969;1147;104457;-86
2021/03/31 01:18:43;;;;;;;23.75;16.20;;;;;;;8.88;71.67;101181.92;147591;1147;104472;-84
2021/03/31 01:22:24;;;;;;;23.80;16.73;;;;;;;8.83;72.13;101179.59;147711;1147;104444;-80
2021/03/31 01:25:37;;;;;;;26.95;18.48;;;;;;;8.79;72.02;101184.30;147310;1147;104599;-83
2021/03/31 01:29:01;;;;;;;29.35;19.37;;;;;;;8.76;72.19;101183.72;147753;1147;104449;-83
2021/03/31 01:32:20;;;;;;;27.17;18.02;;;;;;;8.75;71.85;101179.35;147712;1147;104483;-82
2021/03/31 01:35:25;;;;;;;30.43;20.10;;;;;;;8.71;72.00;101172.58;147354;1147;104491;-79
2021/03/31 01:38:29;;;;;;;29.10;19.42;;;;;;;8.68;72.49;101186.98;147792;1147;104489;-78
2021/03/31 01:41:34;;;;;;;28.77;20.12;;;;;;;8.63;72.41;101176.67;147782;1146;104611;-81
2021/03/31 01:44:39;;;;;;;27.48;17.73;;;;;;;8.61;72.80;101180.42;147478;1147;104483;-83
2021/03/31 01:47:47;;;;;;;29.30;19.17;;;;;;;8.62;72.49;101180.31;147785;1147;104601;-81
2021/03/31 01:50:54;;;;;;;28.80;20.48;;;;;;;8.64;72.54;101181.03;147799;1146;104427;-82
2021/03/31 01:53:58;;;;;;;29.10;19.73;;;;;;;8.65;71.92;101173.89;147813;1148;104470;-84
2021/03/31 01:57:02;;;;;;;32.75;23.50;;;;;;;8.63;72.02;101175.83;147710;1147;104612;-77
2021/03/31 02:00:08;;;;;;;32.35;22.98;;;;;;;8.60;72.32;101174.27;147717;1147;104401;-78
2021/03/31 02:03:18;;;;;;;30.82;21.23;;;;;;;8.55;71.39;101172.91;147473;1147;104538;-73
2021/03/31 02:06:21;;;;;;;27.48;19.05;;;;;;;8.47;71.71;101173.50;147862;1147;104579;-77
2021/03/31 02:09:25;;;;;;;30.48;19.75;;;;;;;8.37;71.94;101161.81;147520;1147;104543;-79
2021/03/31 02:12:30;;;;;;;26.62;17.60;;;;;;;8.29;71.58;101161.56;147442;1147;104586;-78
2021/03/31 02:15:34;;;;;;;30.43;19.00;;;;;;;8.20;71.76;101166.61;147818;1147;104546;-80
2021/03/31 02:18:38;;;;;;;23.75;16.07;;;;;;;8.18;71.26;101163.22;147663;1147;104512;-78
2021/03/31 02:21:43;;;;;;;26.12;17.62;;;;;;;8.18;70.96;101157.03;147816;1147;104470;-78
2021/03/31 02:24:48;;;;;;;25.88;17.02;;;;;;;8.14;71.12;101161.77;147812;1147;104482;-79
2021/03/31 02:27:51;;;;;;;25.40;19.12;;;;;;;8.11;70.99;101161.98;147783;1147;104649;-77
2021/03/31 02:30:54;;;;;;;21.57;15.30;;;;;;;8.09;71.44;101155.93;147378;1147;104522;-77
2021/03/31 02:33:58;;;;;;;24.98;17.45;;;;;;;8.03;71.23;101164.38;147580;1147;104452;-78
2021/03/31 02:37:04;;;;;;;23.60;16.20;;;;;;;7.95;71.61;101154.31;147356;1148;104556;-78
2021/03/31 02:40:10;;;;;;;22.35;15.43;;;;;;;7.87;71.17;101159.32;147274;1147;104596;-78
2021/03/31 02:43:16;;;;;;;24.57;15.93;;;;;;;7.81;70.91;101155.34;147260;1148;104599;-79
2021/03/31 02:46:22;;;;;;;25.10;18.45;;;;;;;7.77;70.81;101156.50;147603;1147;104812;-79
2021/03/31 02:49:28;;;;;;;28.67;19.15;;;;;;;7.72;71.39;101160.45;147713;1146;104502;-78
2021/03/31 02:52:32;;;;;;;23.32;16.55;;;;;;;7.71;71.30;101150.80;147623;1147;104657;-78
2021/03/31 02:55:38;;;;;;;23.87;15.45;;;;;;;7.68;70.88;101151.88;147654;1148;104653;-79
2021/03/31 02:58:43;;;;;;;24.65;17.23;;;;;;;7.69;71.66;101139.44;147524;1147;104598;-77
2021/03/31 03:01:47;;;;;;;23.27;16.17;;;;;;;7.68;70.61;101146.57;147709;1147;104467;-79
2021/03/31 03:04:51;;;;;;;21.60;15.15;;;;;;;7.63;70.91;101136.27;147632;1147;104509;-75
2021/03/31 03:07:55;;;;;;;21.82;15.70;;;;;;;7.60;71.27;101140.95;147521;1147;104476;-78
2021/03/31 03:11:00;;;;;;;22.75;15.72;;;;;;;7.54;71.48;101141.40;147572;1147;104455;-75
2021/03/31 03:14:05;;;;;;;23.42;15.38;;;;;;;7.51;70.91;101142.48;147739;1147;104597;-77
2021/03/31 03:17:09;;;;;;;21.85;15.10;;;;;;;7.45;71.21;101145.59;147639;1146;104493;-75
2021/03/31 03:20:13;;;;;;;21.25;15.08;;;;;;;7.37;70.46;101142.61;147816;1148;104507;-75
2021/03/31 03:23:17;;;;;;;22.13;15.43;;;;;;;7.30;71.19;101138.73;147825;1147;104467;-76
2021/03/31 03:26:22;;;;;;;23.57;16.52;;;;;;;7.25;70.32;101131.08;147825;1148;104579;-77
2021/03/31 03:29:26;;;;;;;20.97;14.37;;;;;;;7.20;71.02;101130.58;147451;1147;104527;-77
2021/03/31 03:32:30;;;;;;;22.10;14.93;;;;;;;7.20;70.97;101122.61;147548;1147;104411;-77
2021/03/31 03:35:34;;;;;;;21.55;15.00;;;;;;;7.20;70.47;101127.92;147833;1147;104540;-77
2021/03/31 03:38:38;;;;;;;23.77;15.60;;;;;;;7.19;69.78;101131.52;147822;1146;104465;-80
2021/03/31 03:41:42;;;;;;;22.00;15.20;;;;;;;7.18;70.71;101125.37;147856;1147;104473;-76
2021/03/31 03:44:46;;;;;;;25.82;17.15;;;;;;;7.15;69.64;101120.27;147768;1148;104547;-76
2021/03/31 03:47:50;;;;;;;24.30;17.23;;;;;;;7.10;70.26;101118.90;147620;1148;104469;-76
2021/03/31 03:50:54;;;;;;;23.77;16.57;;;;;;;7.04;69.74;101125.49;147492;1147;104547;-77
2021/03/31 03:53:58;;;;;;;23.47;15.65;;;;;;;7.00;70.03;101129.32;147478;1147;105090;-77
2021/03/31 03:57:01;;;;;;;22.25;15.25;;;;;;;6.92;70.49;101127.20;147519;1147;104538;-75
2021/03/31 04:00:12;;;;;;;22.82;15.93;;;;;;;6.89;70.85;101124.79;147730;1147;105085;-76
2021/03/31 04:03:17;;;;;;;23.45;15.32;;;;;;;6.84;69.57;101122.44;147416;1147;104847;-76
2021/03/31 04:06:20;;;;;;;22.93;16.27;;;;;;;6.80;69.73;101120.12;147718;1147;104513;-76
2021/03/31 04:09:23;;;;;;;23.60;16.50;;;;;;;6.74;70.64;101136.47;147509;1147;104463;-76
2021/03/31 04:12:28;;;;;;;22.70;16.00;;;;;;;6.72;69.90;101130.40;147580;1147;104477;-76
2021/03/31 04:15:32;;;;;;;24.25;15.20;;;;;;;6.68;69.79;101127.14;147490;1147;104556;-76
2021/03/31 04:18:39;;;;;;;24.30;15.23;;;;;;;6.69;70.23;101129.66;147433;1147;104535;-76
2021/03/31 04:21:43;;;;;;;22.60;15.70;;;;;;;6.72;70.68;101119.78;147787;1147;104594;-81
2021/03/31 04:24:46;;;;;;;23.70;15.72;;;;;;;6.74;70.01;101120.56;147772;1147;104489;-76
2021/03/31 04:27:52;;;;;;;22.55;15.85;;;;;;;6.73;70.16;101124.99;147531;1147;104544;-76
2021/03/31 04:30:57;;;;;;;23.07;15.78;;;;;;;6.77;70.23;101128.28;147662;1147;104602;-76
2021/03/31 04:34:01;;;;;;;28.38;15.88;;;;;;;6.84;70.20;101124.25;147818;1147;104924;-76
2021/03/31 04:37:05;;;;;;;23.05;15.10;;;;;;;6.86;69.29;101125.83;147751;1147;104454;-78
2021/03/31 04:40:13;;;;;;;23.53;15.03;;;;;;;6.87;69.45;101119.59;147779;1146;104504;-76
2021/03/31 04:43:16;;;;;;;23.55;16.07;;;;;;;6.89;69.60;101124.79;147804;1146;104559;-75
2021/03/31 04:46:20;;;;;;;23.67;16.07;;;;;;;6.89;69.67;101116.83;147772;1147;104520;-75
2021/03/31 04:49:23;;;;;;;23.67;16.50;;;;;;;6.92;69.37;101113.95;147800;1147;104545;-80
2021/03/31 04:52:28;;;;;;;22.67;16.07;;;;;;;6.96;69.39;101107.45;147705;1148;104465;-76
2021/03/31 04:55:32;;;;;;;23.23;16.60;;;;;;;6.98;70.21;101110.02;147462;1147;104480;-76
2021/03/31 04:58:35;;;;;;;26.70;15.80;;;;;;;7.04;70.21;101107.78;147655;1147;104544;-76
2021/03/31 05:01:39;;;;;;;24.12;16.07;;;;;;;7.14;69.18;101115.06;147587;1147;104586;-79
2021/03/31 05:04:42;;;;;;;22.65;14.58;;;;;;;7.28;70.26;101109.62;147833;1147;104649;-77
2021/03/31 05:07:45;;;;;;;22.63;15.63;;;;;;;7.41;70.08;101115.75;147531;1147;104473;-75
2021/03/31 05:10:48;;;;;;;26.53;17.43;;;;;;;7.54;69.59;101118.34;147576;1146;104546;-77
2021/03/31 05:13:52;;;;;;;24.40;16.83;;;;;;;7.63;69.74;101128.30;147509;1147;104601;-80
2021/03/31 05:16:55;;;;;;;22.30;15.50;;;;;;;7.75;70.04;101121.23;147687;1147;104597;-76
2021/03/31 05:19:59;;;;;;;24.10;16.95;;;;;;;7.87;70.25;101119.46;147492;1147;104485;-77
2021/03/31 05:23:03;;;;;;;20.80;16.05;;;;;;;7.94;69.44;101133.16;147312;1147;104470;-76
2021/03/31 05:26:06;;;;;;;21.63;16.17;;;;;;;8.01;70.10;101139.72;147561;1148;104476;-75
2021/03/31 05:29:09;;;;;;;21.15;16.02;;;;;;;8.05;69.88;101138.52;147669;1147;104467;-77
2021/03/31 05:32:12;;;;;;;20.32;15.35;;;;;;;8.11;69.79;101146.03;147421;1147;104602;-76
2021/03/31 05:35:16;;;;;;;21.75;14.43;;;;;;;8.16;69.82;101143.88;147746;1147;104455;-76
2021/03/31 05:38:19;;;;;;;23.30;15.58;;;;;;;8.31;70.94;101146.33;147432;1148;104543;-76
2021/03/31 05:41:23;;;;;;;23.77;17.35;;;;;;;8.48;70.78;101150.41;147635;1147;104470;-74
2021/03/31 05:44:26;;;;;;;24.37;15.93;;;;;;;8.65;70.28;101145.47;147560;1147;104483;-73
2021/03/31 05:47:35;;;;;;;30.05;20.10;;;;;;;8.81;69.94;101150.47;147675;1147;104620;-75
2021/03/31 05:50:39;;;;;;;32.30;21.00;;;;;;;8.97;70.69;101155.43;147780;1147;104633;-75
2021/03/31 05:53:42;;;;;;;32.03;21.63;;;;;;;9.13;70.77;101154.22;147773;1146;104544;-74
2021/03/31 05:56:46;;;;;;;56.80;34.20;;;;;;;9.29;71.19;101152.02;147770;1147;104526;-73
2021/03/31 05:59:53;;;;;;;50.40;29.93;;;;;;;9.44;71.15;101145.45;147873;1147;104473;-74
2021/03/31 06:02:56;;;;;;;52.13;27.00;;;;;;;9.58;71.53;101144.36;147782;1147;104666;-74
2021/03/31 06:06:00;;;;;;;50.20;26.45;;;;;;;9.76;71.92;101152.66;147735;1147;104656;-74
2021/03/31 06:09:08;;;;;;;52.43;29.02;;;;;;;9.94;71.87;101154.78;147727;1147;104946;-74
2021/03/31 06:12:12;;;;;;;44.80;26.05;;;;;;;10.12;71.49;101150.59;147717;1147;104467;-74
2021/03/31 06:15:23;;;;;;;199.30;60.78;;;;;;;10.32;71.32;101145.44;147767;1146;104905;-74
2021/03/31 06:18:26;;;;;;;85.05;36.20;;;;;;;10.50;71.91;101151.86;147639;1146;104889;-74
2021/03/31 06:21:29;;;;;;;46.83;27.57;;;;;;;10.66;72.16;101150.55;147310;1147;104528;-74
2021/03/31 06:24:34;;;;;;;36.25;21.30;;;;;;;10.82;72.22;101145.60;147574;1148;104486;-76
2021/03/31 06:27:37;;;;;;;33.47;21.37;;;;;;;11.00;71.80;101137.80;147721;1147;104516;-72
2021/03/31 06:30:41;;;;;;;32.53;23.10;;;;;;;11.24;72.38;101144.63;147665;1147;104489;-76
2021/03/31 06:33:46;;;;;;;34.63;25.08;;;;;;;11.46;72.24;101143.59;147775;1147;104579;-75
2021/03/31 06:36:56;;;;;;;40.70;28.70;;;;;;;11.67;72.54;101152.34;147624;1146;104549;-74
2021/03/31 06:39:59;;;;;;;38.83;27.77;;;;;;;11.88;72.59;101149.56;147581;1147;104542;-77
2021/03/31 06:43:13;;;;;;;38.97;27.07;;;;;;;12.06;72.37;101144.38;147789;1147;104463;-74
2021/03/31 06:46:30;;;;;;;36.93;23.15;;;;;;;12.22;72.49;101142.97;147799;1147;104476;-76
2021/03/31 06:49:34;;;;;;;32.38;22.13;;;;;;;12.39;72.72;101142.23;147770;1147;104556;-77
2021/03/31 06:52:53;;;;;;;33.33;23.87;;;;;;;12.59;72.22;101148.42;147754;1147;104517;-74
2021/03/31 06:56:06;;;;;;;35.53;25.17;;;;;;;12.79;71.56;101138.48;147784;1147;104448;-74
2021/03/31 06:59:10;;;;;;;33.87;23.87;;;;;;;12.98;71.98;101131.39;147722;1146;104459;-75
2021/03/31 07:02:15;;;;;;;33.65;23.80;;;;;;;13.16;72.02;101129.59;147507;1146;104500;-77
2021/03/31 07:05:18;;;;;;;35.65;25.23;;;;;;;13.28;72.30;101125.74;147726;1147;104515;-74
2021/03/31 07:08:21;;;;;;;39.20;27.07;;;;;;;13.43;71.91;101130.61;147763;1147;104545;-74
2021/03/31 07:11:41;;;;;;;29.07;21.57;;;;;;;13.54;72.15;101130.41;147782;1147;104494;-74
2021/03/31 07:14:45;;;;;;;32.17;21.62;;;;;;;13.68;71.50;101121.00;147796;1147;104459;-77
2021/03/31 07:17:53;;;;;;;31.93;23.92;;;;;;;13.82;71.57;101119.62;147755;1148;104492;-74
2021/03/31 07:20:56;;;;;;;36.10;22.85;;;;;;;13.97;71.94;101115.40;147771;1147;104617;-77
2021/03/31 07:24:00;;;;;;;31.45;22.67;;;;;;;14.07;71.53;101124.23;147776;1147;104577;-74
2021/03/31 07:27:06;;;;;;;34.85;24.27;;;;;;;14.13;71.43;101118.23;147771;1148;104553;-76
2021/03/31 07:30:13;;;;;;;33.73;24.67;;;;;;;14.23;71.67;101128.05;147760;1147;104550;-75
2021/03/31 07:33:21;;;;;;;34.40;25.00;;;;;;;14.31;71.84;101122.73;147813;1146;104543;-73
2021/03/31 07:36:26;;;;;;;35.58;26.10;;;;;;;14.35;71.50;101121.42;147758;1147;104535;-76
2021/03/31 07:39:31;;;;;;;30.50;22.52;;;;;;;14.39;71.55;101117.41;147691;1147;104469;-75
2021/03/31 07:42:36;;;;;;;30.35;20.95;;;;;;;14.46;71.32;101118.48;147706;1147;104552;-74
2021/03/31 07:45:42;;;;;;;31.02;22.50;;;;;;;14.57;71.36;101127.30;147703;1147;104495;-74
2021/03/31 07:48:46;;;;;;;30.30;22.52;;;;;;;14.66;71.33;101129.05;147800;1147;104454;-74
2021/03/31 07:51:57;;;;;;;34.53;25.15;;;;;;;14.72;70.87;101123.90;147832;1147;104626;-75
2021/03/31 07:55:20;;;;;;;29.75;22.00;;;;;;;14.79;70.72;101121.41;147492;1145;104554;-75
2021/03/31 07:58:29;;;;;;;32.90;23.65;;;;;;;14.80;71.01;101112.36;147353;1147;104924;-75
2021/03/31 08:01:37;;;;;;;30.25;23.25;;;;;;;14.83;70.83;101106.64;147317;1147;104491;-75
2021/03/31 08:04:41;;;;;;;29.25;22.67;;;;;;;14.87;71.23;101109.86;147753;1147;104706;-75
2021/03/31 08:08:14;;;;;;;27.95;19.95;;;;;;;14.89;71.00;101108.69;147539;1147;104604;-75
2021/03/31 08:11:46;;;;;;;28.10;19.60;;;;;;;14.97;70.41;101109.73;147293;1147;104469;-75
2021/03/31 08:14:49;;;;;;;28.17;20.40;;;;;;;15.04;70.42;101097.34;147765;1147;104486;-75
2021/03/31 08:17:52;;;;;;;28.80;22.30;;;;;;;15.12;70.73;101090.13;147250;1147;104596;-75
2021/03/31 08:20:56;;;;;;;26.80;20.72;;;;;;;15.22;70.65;101095.41;147365;1147;104947;-75
2021/03/31 08:24:03;;;;;;;28.32;23.87;;;;;;;15.29;70.47;101088.34;147248;1147;104591;-75
2021/03/31 08:27:07;;;;;;;30.33;24.60;;;;;;;15.35;70.38;101086.86;147693;1147;104867;-75
2021/03/31 08:30:20;;;;;;;31.50;23.38;;;;;;;15.39;70.17;101087.38;147277;1145;104463;-75
2021/03/31 08:33:23;;;;;;;29.05;22.17;;;;;;;15.42;70.48;101089.75;147317;1147;104462;-75
2021/03/31 08:36:26;;;;;;;26.15;18.57;;;;;;;15.51;70.00;101086.91;147369;1146;104524;-74
2021/03/31 08:39:30;;;;;;;26.53;20.03;;;;;;;15.65;70.09;101088.10;147302;1147;104601;-75
2021/03/31 08:42:33;;;;;;;27.20;20.82;;;;;;;15.81;70.15;101089.16;147290;1146;104560;-75
2021/03/31 08:45:40;;;;;;;27.25;20.75;;;;;;;16.00;69.59;101088.83;147268;1147;104543;-74
2021/03/31 08:48:45;;;;;;;25.10;19.98;;;;;;;16.19;69.57;101086.82;147298;1147;104544;-76
2021/03/31 08:51:51;;;;;;;25.43;20.77;;;;;;;16.31;69.03;101082.75;147295;1147;104809;-75
2021/03/31 08:54:55;;;;;;;25.68;19.55;;;;;;;16.43;69.15;101085.93;147607;1147;104524;-76
2021/03/31 08:58:00;;;;;;;23.20;18.62;;;;;;;16.49;68.98;101075.33;147763;1147;104483;-76
2021/03/31 09:01:04;;;;;;;27.15;20.17;;;;;;;16.58;69.19;101073.44;147577;1146;104473;-76
2021/03/31 09:04:20;;;;;;;25.47;19.13;;;;;;;16.69;69.04;101069.55;147740;1147;104455;-75
2021/03/31 09:07:24;;;;;;;24.05;17.55;;;;;;;16.74;68.82;101072.54;147437;1146;104459;-74
2021/03/31 09:10:28;;;;;;;22.58;16.95;;;;;;;16.78;68.85;101068.51;147618;1147;104612;-75
2021/03/31 09:13:36;;;;;;;23.57;16.80;;;;;;;16.86;68.77;101073.06;147420;1147;104532;-74
2021/03/31 09:16:47;;;;;;;24.25;16.17;;;;;;;17.00;68.43;101066.09;147363;1147;104854;-75
2021/03/31 09:19:54;;;;;;;22.25;15.30;;;;;;;17.14;67.85;101056.41;147430;1147;104459;-76
2021/03/31 09:22:57;;;;;;;19.52;15.50;;;;;;;17.32;67.89;101050.73;147336;1147;104550;-75
2021/03/31 09:26:03;;;;;;;19.67;15.00;;;;;;;17.53;67.50;101056.33;147316;1147;104481;-76
2021/03/31 09:29:15;;;;;;;19.20;14.45;;;;;;;17.74;68.18;101052.14;147317;1147;104454;-76
2021/03/31 09:32:23;;;;;;;20.37;14.07;;;;;;;17.92;67.62;101041.05;147281;1146;104486;-74
2021/03/31 09:35:27;;;;;;;18.82;13.45;;;;;;;18.09;67.47;101037.20;147576;1146;104449;-75
2021/03/31 09:38:30;;;;;;;19.20;13.83;;;;;;;18.26;65.85;101040.56;147726;1147;104558;-76
2021/03/31 09:41:34;;;;;;;20.57;14.83;;;;;;;18.39;65.16;101035.36;147897;1147;104598;-76
2021/03/31 09:44:37;;;;;;;19.52;13.32;;;;;;;18.47;67.05;101037.14;147736;1147;104562;-76
2021/03/31 09:47:41;;;;;;;19.00;13.27;;;;;;;18.55;66.15;101038.91;147920;1147;104448;-76
2021/03/31 09:50:45;;;;;;;18.67;13.37;;;;;;;18.56;65.61;101040.60;147644;1145;104490;-76
2021/03/31 09:53:50;;;;;;;21.93;13.60;;;;;;;18.58;66.28;101033.14;147535;1147;104585;-76
2021/03/31 09:56:54;;;;;;;19.73;12.65;;;;;;;18.60;65.56;101028.39;147797;1147;104694;-76
2021/03/31 10:00:02;;;;;;;18.37;13.15;;;;;;;18.60;66.18;101026.52;147707;1147;104542;-75
2021/03/31 10:03:16;;;;;;;17.20;12.03;;;;;;;18.65;64.63;101023.27;147774;1148;104466;-76
2021/03/31 10:06:21;;;;;;;16.33;11.90;;;;;;;18.62;64.63;101027.16;147752;1148;104540;-76
2021/03/31 10:09:24;;;;;;;16.27;11.20;;;;;;;18.63;64.99;101009.11;147520;1147;104540;-75
2021/03/31 10:12:31;;;;;;;15.53;10.78;;;;;;;18.57;65.03;101017.94;147432;1147;104485;-76
2021/03/31 10:15:34;;;;;;;19.17;12.18;;;;;;;18.54;65.02;101005.64;147790;1148;104455;-76
2021/03/31 10:18:38;;;;;;;15.53;11.20;;;;;;;18.49;63.96;101018.04;147749;1146;104528;-76
2021/03/31 10:21:41;;;;;;;14.18;9.73;;;;;;;18.33;64.75;101006.39;147761;1146;104553;-76
2021/03/31 10:24:46;;;;;;;13.68;9.78;;;;;;;18.29;64.68;101005.09;147756;1147;104485;-75
2021/03/31 10:27:50;;;;;;;14.63;9.58;;;;;;;18.25;63.98;101001.91;147759;1146;104598;-75
2021/03/31 10:30:53;;;;;;;13.03;8.93;;;;;;;18.18;64.26;101003.67;147787;1146;104487;-76
2021/03/31 10:33:56;;;;;;;14.38;9.50;;;;;;;18.14;64.54;101005.06;147746;1147;104545;-76
2021/03/31 10:37:04;;;;;;;15.15;9.20;;;;;;;18.10;64.06;100997.53;147731;1146;104889;-76
2021/03/31 10:47:01;;;;;;;12.35;8.88;;;;;;;17.96;63.46;100975.72;147524;1147;104471;-76
2021/03/31 10:50:07;;;;;;;11.95;9.03;;;;;;;17.87;63.51;100982.22;147353;1147;104473;-76
2021/03/31 10:53:11;;;;;;;20.97;15.13;;;;;;;17.79;60.54;100980.39;147685;1146;104573;-76
2021/03/31 10:56:14;;;;;;;16.43;11.00;;;;;;;17.77;62.18;100976.21;147569;1147;104549;-76
2021/03/31 10:59:18;;;;;;;18.80;11.63;;;;;;;17.78;61.74;100967.94;147704;1147;104566;-75
2021/03/31 11:02:21;;;;;;;16.48;11.88;;;;;;;17.84;62.02;100977.17;147751;1147;104448;-76
2021/03/31 11:05:24;;;;;;;17.23;11.97;;;;;;;17.85;62.47;100962.66;147574;1147;104550;-76
2021/03/31 11:08:27;;;;;;;18.17;13.20;;;;;;;17.89;61.88;100958.56;147405;1146;104495;-75
2021/03/31 11:11:31;;;;;;;16.87;12.47;;;;;;;17.96;61.79;100948.72;147603;1147;104473;-76
2021/03/31 11:14:35;;;;;;;20.92;13.20;;;;;;;17.97;60.65;100944.98;147801;1147;104556;-75
2021/03/31 11:17:44;;;;;;;17.17;13.47;;;;;;;18.02;62.08;100947.97;147798;1148;104555;-76
2021/03/31 11:21:04;;;;;;;19.07;13.48;;;;;;;18.06;60.98;100940.34;147703;1145;104522;-76
2021/03/31 11:27:29;;;;;;;21.00;14.43;;;;;;;18.14;60.33;100939.41;147482;1148;104511;-76
2021/03/31 11:30:32;;;;;;;16.12;12.15;;;;;;;18.16;61.36;100937.36;147696;1147;104614;-75
2021/03/31 11:33:36;;;;;;;16.90;11.50;;;;;;;18.20;58.15;100928.69;147759;1148;104554;-76
2021/03/31 11:36:40;;;;;;;16.02;11.38;;;;;;;18.24;59.33;100929.16;147722;1147;104546;-76
2021/03/31 11:39:43;;;;;;;17.53;11.97;;;;;;;18.29;58.42;100926.74;147528;1147;104553;-76
2021/03/31 11:42:46;;;;;;;14.80;11.50;;;;;;;18.37;60.20;100918.53;147441;1147;104492;-75
2021/03/31 11:45:50;;;;;;;16.40;11.38;;;;;;;18.41;59.92;100917.12;147728;1147;104646;-76
2021/03/31 11:48:53;;;;;;;17.27;11.50;;;;;;;18.45;60.22;100913.01;147389;1147;104552;-76
2021/03/31 11:51:56;;;;;;;13.55;11.08;;;;;;;18.47;57.80;100912.00;147384;1148;104473;-75
2021/03/31 11:54:59;;;;;;;15.93;11.80;;;;;;;18.55;57.75;100901.07;147719;1147;104461;-75
2021/03/31 11:58:02;;;;;;;13.83;11.30;;;;;;;18.63;59.49;100901.81;147353;1147;104876;-74
2021/03/31 12:01:06;;;;;;;14.28;10.15;;;;;;;18.69;59.57;100900.22;147264;1147;104588;-77
2021/03/31 12:04:10;;;;;;;17.80;11.88;;;;;;;18.71;58.05;100900.86;147328;1147;104554;-76
2021/03/31 12:07:15;;;;;;;13.83;11.33;;;;;;;18.78;59.56;100892.81;147333;1147;104467;-75
2021/03/31 12:10:18;;;;;;;15.43;12.33;;;;;;;18.81;58.94;100882.48;147762;1147;104457;-75
2021/03/31 12:13:21;;;;;;;15.35;11.68;;;;;;;18.88;56.67;100887.12;147765;1148;104503;-76
2021/03/31 12:16:24;;;;;;;18.00;13.30;;;;;;;18.96;57.42;100879.73;147685;1148;104722;-76
2021/03/31 12:19:27;;;;;;;15.63;12.82;;;;;;;18.97;58.80;100867.86;147715;1147;104486;-75
2021/03/31 12:22:31;;;;;;;17.57;12.40;;;;;;;19.04;58.86;100870.65;147684;1148;104526;-74
2021/03/31 12:25:34;;;;;;;14.20;10.85;;;;;;;19.10;58.55;100864.45;147558;1147;104476;-76
2021/03/31 12:28:37;;;;;;;14.38;11.35;;;;;;;19.15;57.32;100866.56;147266;1147;104553;-75
2021/03/31 12:31:41;;;;;;;12.20;9.23;;;;;;;19.20;57.50;100859.55;147515;1147;104548;-75
2021/03/31 12:34:45;;;;;;;13.68;9.85;;;;;;;19.27;57.94;100859.62;147260;1147;104465;-74
2021/03/31 12:37:48;;;;;;;11.73;9.20;;;;;;;19.30;56.01;100847.55;147197;1146;104541;-74
2021/03/31 12:40:52;;;;;;;12.68;8.55;;;;;;;19.36;57.00;100850.33;147315;1147;104544;-76
2021/03/31 12:43:55;;;;;;;12.65;8.65;;;;;;;19.41;57.02;100849.73;147325;1147;104497;-75
2021/03/31 12:46:59;;;;;;;14.13;10.37;;;;;;;19.42;56.61;100854.95;147294;1148;104577;-76
2021/03/31 12:50:03;;;;;;;13.32;10.23;;;;;;;19.43;54.56;100840.37;147577;1147;104506;-76
2021/03/31 12:53:16;;;;;;;17.77;14.18;;;;;;;19.46;55.91;100843.71;147289;1147;104543;-75
2021/03/31 12:56:21;;;;;;;12.68;9.75;;;;;;;19.48;55.12;100839.80;147256;1147;104417;-75
2021/03/31 12:59:24;;;;;;;11.53;8.38;;;;;;;19.48;55.57;100828.97;147675;1147;104519;-77
2021/03/31 13:02:27;;;;;;;30.37;26.37;;;;;;;19.45;54.29;100837.47;147292;1147;104542;-75
2021/03/31 13:05:31;;;;;;;13.40;10.88;;;;;;;19.46;54.02;100824.77;147234;1147;104561;-75
2021/03/31 13:08:34;;;;;;;10.40;9.30;;;;;;;19.41;52.78;100823.49;147185;1147;104511;-74
2021/03/31 13:11:37;;;;;;;10.15;7.42;;;;;;;19.45;54.27;100812.28;147601;1147;104573;-76
2021/03/31 13:15:09;;;;;;;10.25;8.03;;;;;;;19.51;51.66;100819.61;147507;1147;104573;-76
2021/03/31 13:31:30;;;;;;;95.60;56.47;;;;;;;19.72;52.40;100797.06;147762;1147;104474;-75
2021/03/31 13:34:36;;;;;;;14.90;9.93;;;;;;;19.69;53.05;100792.87;147740;1147;104540;-76
2021/03/31 13:37:42;;;;;;;19.30;10.55;;;;;;;19.76;53.46;100790.22;147616;1147;104962;-76
2021/03/31 13:40:46;;;;;;;10.98;7.22;;;;;;;19.77;50.81;100784.60;147451;1147;104489;-76
2021/03/31 13:43:49;;;;;;;11.88;7.17;;;;;;;19.72;52.19;100786.23;147760;1147;104530;-76
2021/03/31 13:46:57;;;;;;;11.63;7.20;;;;;;;19.66;53.04;100776.19;147388;1147;104532;-75
2021/03/31 13:50:02;;;;;;;10.58;6.70;;;;;;;19.65;52.76;100779.91;147699;1147;104586;-76
2021/03/31 13:53:05;;;;;;;30.97;21.40;;;;;;;19.60;52.06;100778.64;147794;1146;104551;-76
2021/03/31 13:56:14;;;;;;;14.45;9.88;;;;;;;19.51;49.94;100773.59;147709;1147;104540;-76
2021/03/31 13:59:17;;;;;;;9.75;7.33;;;;;;;19.50;53.50;100764.64;147719;1148;104540;-76
2021/03/31 14:02:21;;;;;;;23.52;16.32;;;;;;;19.48;51.04;100763.19;147393;1146;104447;-76
2021/03/31 14:05:25;;;;;;;21.55;15.32;;;;;;;19.47;51.47;100754.20;147829;1147;104526;-75
2021/03/31 14:08:29;;;;;;;15.53;12.30;;;;;;;19.46;52.91;100744.43;147845;1146;104563;-75
2021/03/31 14:11:32;;;;;;;11.78;7.37;;;;;;;19.47;52.52;100745.26;147558;1148;104489;-76